sensor_id;sensor_type;location;lat;lon;timestamp;pressure;altitude;pressure_sealevel;temperature;humidity
30463;BME280;17256;43.618;25.336;2023-07-13T00:01:48;100507.63;;;26.98;100.00
30463;BME280;17256;43.618;25.336;2023-07-13T00:04:20;100527.63;;;27.15;98.35
30463;BME280;17256;43.618;25.336;2023-07-13T00:06:55;100522.09;;;27.10;99.39
30463;BME280;17256;43.618;25.336;2023-07-13T00:09:21;100346.19;;;26.10;98.77
30463;BME280;17256;43.618;25.336;2023-07-13T00:12:49;100513.13;;;27.08;99.33
30463;BME280;17256;43.618;25.336;2023-07-13T00:18:36;100425.16;;;26.65;97.52
30463;BME280;17256;43.618;25.336;2023-07-13T00:22:02;100513.94;;;27.22;97.36
30463;BME280;17256;43.618;25.336;2023-07-13T00:24:29;100444.25;;;26.54;98.39
30463;BME280;17256;43.618;25.336;2023-07-13T00:27:03;100506.97;;;27.06;99.00
30463;BME280;17256;43.618;25.336;2023-07-13T00:29:33;100519.06;;;27.20;98.25
30463;BME280;17256;43.618;25.336;2023-07-13T00:48:26;100450.03;;;26.44;100.00
30463;BME280;17256;43.618;25.336;2023-07-13T00:50:57;100390.09;;;26.11;100.00
30463;BME280;17256;43.618;25.336;2023-07-13T02:33:11;100513.13;;;25.44;100.00
30463;BME280;17256;43.618;25.336;2023-07-13T02:41:44;100174.38;;;23.28;100.00
30463;BME280;17256;43.618;25.336;2023-07-13T02:50:03;100515.41;;;25.42;100.00
30463;BME280;17256;43.618;25.336;2023-07-13T02:53:41;100215.69;;;23.46;100.00
30463;BME280;17256;43.618;25.336;2023-07-13T03:09:39;100358.00;;;24.51;100.00
30463;BME280;17256;43.618;25.336;2023-07-13T03:13:39;100207.47;;;23.60;100.00
30463;BME280;17256;43.618;25.336;2023-07-13T03:17:05;100318.91;;;24.36;100.00
30463;BME280;17256;43.618;25.336;2023-07-13T03:21:09;100519.03;;;25.66;100.00
30463;BME280;17256;43.618;25.336;2023-07-13T04:03:43;100530.66;;;27.60;100.00
30463;BME280;17256;43.618;25.336;2023-07-13T04:06:15;100500.88;;;27.81;100.00
30463;BME280;17256;43.618;25.336;2023-07-13T04:24:49;100467.31;;;28.16;100.00
30463;BME280;17256;43.618;25.336;2023-07-13T04:27:23;100422.59;;;27.87;100.00
30463;BME280;17256;43.618;25.336;2023-07-13T04:29:48;100421.44;;;27.88;100.00
30463;BME280;17256;43.618;25.336;2023-07-13T04:32:14;100471.59;;;28.27;100.00
30463;BME280;17256;43.618;25.336;2023-07-13T04:34:39;100495.41;;;28.57;100.00
30463;BME280;17256;43.618;25.336;2023-07-13T04:37:05;100458.72;;;28.43;100.00
30463;BME280;17256;43.618;25.336;2023-07-13T04:39:31;100539.38;;;29.25;100.00
30463;BME280;17256;43.618;25.336;2023-07-13T04:41:56;100502.03;;;29.06;100.00
30463;BME280;17256;43.618;25.336;2023-07-13T04:44:22;100541.25;;;29.38;100.00
30463;BME280;17256;43.618;25.336;2023-07-13T04:46:47;100470.63;;;28.54;100.00
30463;BME280;17256;43.618;25.336;2023-07-13T04:49:13;100489.25;;;28.55;100.00
30463;BME280;17256;43.618;25.336;2023-07-13T04:51:38;100472.41;;;28.50;100.00
30463;BME280;17256;43.618;25.336;2023-07-13T04:54:04;100497.63;;;28.91;100.00
30463;BME280;17256;43.618;25.336;2023-07-13T04:56:30;100547.19;;;29.68;100.00
30463;BME280;17256;43.618;25.336;2023-07-13T04:58:56;100523.28;;;29.91;100.00
30463;BME280;17256;43.618;25.336;2023-07-13T05:01:21;100551.31;;;30.36;99.73
30463;BME280;17256;43.618;25.336;2023-07-13T05:03:47;100541.00;;;30.40;99.06
30463;BME280;17256;43.618;25.336;2023-07-13T05:06:13;100472.31;;;29.91;99.13
30463;BME280;17256;43.618;25.336;2023-07-13T05:08:39;100525.34;;;30.51;98.42
30463;BME280;17256;43.618;25.336;2023-07-13T05:11:06;100540.13;;;30.83;96.14
30463;BME280;17256;43.618;25.336;2023-07-13T05:13:32;100530.38;;;31.10;91.81
30463;BME280;17256;43.618;25.336;2023-07-13T05:15:59;100542.06;;;31.17;91.54
30463;BME280;17256;43.618;25.336;2023-07-13T05:18:25;100524.53;;;31.24;93.22
30463;BME280;17256;43.618;25.336;2023-07-13T05:21:05;100525.25;;;31.03;93.35
30463;BME280;17256;43.618;25.336;2023-07-13T05:23:32;100515.31;;;30.54;95.40
30463;BME280;17256;43.618;25.336;2023-07-13T05:25:58;100539.09;;;29.84;100.00
30463;BME280;17256;43.618;25.336;2023-07-13T05:28:25;100487.91;;;29.15;100.00
30463;BME280;17256;43.618;25.336;2023-07-13T05:30:50;100534.53;;;29.65;100.00
30463;BME280;17256;43.618;25.336;2023-07-13T05:33:16;100564.50;;;30.67;100.00
30463;BME280;17256;43.618;25.336;2023-07-13T05:35:42;100496.50;;;30.41;100.00
30463;BME280;17256;43.618;25.336;2023-07-13T05:38:07;100544.91;;;31.08;100.00
30463;BME280;17256;43.618;25.336;2023-07-13T05:40:33;100552.00;;;30.76;99.08
30463;BME280;17256;43.618;25.336;2023-07-13T05:42:59;100394.72;;;29.75;100.00
30463;BME280;17256;43.618;25.336;2023-07-13T05:45:24;100520.00;;;30.50;99.47
30463;BME280;17256;43.618;25.336;2023-07-13T05:47:55;100562.66;;;30.79;98.32
30463;BME280;17256;43.618;25.336;2023-07-13T05:50:20;100559.22;;;31.29;94.65
30463;BME280;17256;43.618;25.336;2023-07-13T05:52:46;100598.31;;;32.00;89.38
30463;BME280;17256;43.618;25.336;2023-07-13T05:55:12;100591.31;;;32.18;82.51
30463;BME280;17256;43.618;25.336;2023-07-13T05:57:38;100593.47;;;32.21;81.48
30463;BME280;17256;43.618;25.336;2023-07-13T06:00:05;100565.47;;;31.52;86.33
30463;BME280;17256;43.618;25.336;2023-07-13T06:02:37;100553.16;;;31.48;83.96
30463;BME280;17256;43.618;25.336;2023-07-13T06:05:03;100582.19;;;31.45;85.64
30463;BME280;17256;43.618;25.336;2023-07-13T06:07:28;100547.34;;;31.65;84.89
30463;BME280;17256;43.618;25.336;2023-07-13T06:09:55;100594.69;;;31.91;84.20
30463;BME280;17256;43.618;25.336;2023-07-13T06:12:21;100553.34;;;32.31;80.88
30463;BME280;17256;43.618;25.336;2023-07-13T06:14:46;100526.84;;;32.39;78.19
30463;BME280;17256;43.618;25.336;2023-07-13T06:17:12;100553.88;;;32.46;78.16
30463;BME280;17256;43.618;25.336;2023-07-13T06:19:38;100585.34;;;32.61;76.47
30463;BME280;17256;43.618;25.336;2023-07-13T06:22:04;100530.75;;;32.68;74.69
30463;BME280;17256;43.618;25.336;2023-07-13T06:24:29;100533.69;;;32.92;74.91
30463;BME280;17256;43.618;25.336;2023-07-13T06:26:55;100470.00;;;32.39;72.55
30463;BME280;17256;43.618;25.336;2023-07-13T06:29:20;100610.09;;;33.15;73.48
30463;BME280;17256;43.618;25.336;2023-07-13T06:31:46;100563.38;;;33.03;70.39
30463;BME280;17256;43.618;25.336;2023-07-13T06:34:11;100596.41;;;33.29;71.45
30463;BME280;17256;43.618;25.336;2023-07-13T06:36:37;100586.44;;;33.23;67.87
30463;BME280;17256;43.618;25.336;2023-07-13T06:39:04;100599.25;;;32.96;68.64
30463;BME280;17256;43.618;25.336;2023-07-13T06:41:29;100596.22;;;33.13;69.60
30463;BME280;17256;43.618;25.336;2023-07-13T06:43:57;100558.38;;;33.94;66.62
30463;BME280;17256;43.618;25.336;2023-07-13T06:46:22;100584.13;;;34.35;64.77
30463;BME280;17256;43.618;25.336;2023-07-13T06:52:04;100583.38;;;34.78;64.39
30463;BME280;17256;43.618;25.336;2023-07-13T06:54:30;100571.69;;;34.95;61.74
30463;BME280;17256;43.618;25.336;2023-07-13T06:56:55;100600.97;;;35.08;63.35
30463;BME280;17256;43.618;25.336;2023-07-13T06:59:21;100564.44;;;34.58;62.66
30463;BME280;17256;43.618;25.336;2023-07-13T07:01:47;100602.44;;;34.62;64.35
30463;BME280;17256;43.618;25.336;2023-07-13T07:04:12;100573.03;;;34.85;64.39
30463;BME280;17256;43.618;25.336;2023-07-13T07:06:38;100593.88;;;35.17;63.83
30463;BME280;17256;43.618;25.336;2023-07-13T07:09:03;100597.00;;;35.40;62.73
30463;BME280;17256;43.618;25.336;2023-07-13T07:11:29;100580.88;;;35.48;62.84
30463;BME280;17256;43.618;25.336;2023-07-13T07:13:54;100575.34;;;35.55;61.39
30463;BME280;17256;43.618;25.336;2023-07-13T07:16:20;100551.44;;;35.16;60.85
30463;BME280;17256;43.618;25.336;2023-07-13T07:18:46;100590.28;;;35.64;60.00
30463;BME280;17256;43.618;25.336;2023-07-13T07:21:13;100602.53;;;35.65;57.83
30463;BME280;17256;43.618;25.336;2023-07-13T07:23:38;100538.22;;;35.55;57.30
30463;BME280;17256;43.618;25.336;2023-07-13T07:26:04;100556.06;;;35.99;55.15
30463;BME280;17256;43.618;25.336;2023-07-13T07:28:30;100570.09;;;36.59;55.39
30463;BME280;17256;43.618;25.336;2023-07-13T07:30:58;100604.72;;;37.12;54.64
30463;BME280;17256;43.618;25.336;2023-07-13T07:33:24;100603.25;;;37.41;54.24
30463;BME280;17256;43.618;25.336;2023-07-13T07:35:50;100602.56;;;36.86;52.91
30463;BME280;17256;43.618;25.336;2023-07-13T07:38:16;100587.50;;;36.70;52.56
30463;BME280;17256;43.618;25.336;2023-07-13T07:40:42;100562.38;;;36.24;52.97
30463;BME280;17256;43.618;25.336;2023-07-13T07:43:09;100560.28;;;36.41;53.74
30463;BME280;17256;43.618;25.336;2023-07-13T07:45:36;100536.19;;;36.42;52.98
30463;BME280;17256;43.618;25.336;2023-07-13T07:48:03;100493.78;;;36.44;53.32
30463;BME280;17256;43.618;25.336;2023-07-13T07:50:30;100555.34;;;36.57;51.31
30463;BME280;17256;43.618;25.336;2023-07-13T07:52:56;100597.56;;;36.63;51.71
30463;BME280;17256;43.618;25.336;2023-07-13T07:55:22;100602.38;;;37.17;53.49
30463;BME280;17256;43.618;25.336;2023-07-13T07:57:48;100606.03;;;36.95;51.44
30463;BME280;17256;43.618;25.336;2023-07-13T08:00:15;100565.34;;;36.47;53.33
30463;BME280;17256;43.618;25.336;2023-07-13T08:02:40;100588.03;;;36.21;54.54
30463;BME280;17256;43.618;25.336;2023-07-13T08:05:10;100603.97;;;36.22;55.72
30463;BME280;17256;43.618;25.336;2023-07-13T08:07:37;100573.03;;;35.92;54.66
30463;BME280;17256;43.618;25.336;2023-07-13T08:10:03;100493.06;;;35.61;54.75
30463;BME280;17256;43.618;25.336;2023-07-13T08:15:59;100559.22;;;35.94;55.21
30463;BME280;17256;43.618;25.336;2023-07-13T08:18:25;100565.41;;;35.96;53.86
30463;BME280;17256;43.618;25.336;2023-07-13T08:21:08;100559.25;;;36.14;53.29
30463;BME280;17256;43.618;25.336;2023-07-13T08:23:35;100556.69;;;36.09;54.50
30463;BME280;17256;43.618;25.336;2023-07-13T08:26:01;100528.69;;;36.18;54.29
30463;BME280;17256;43.618;25.336;2023-07-13T08:28:27;100443.84;;;35.83;55.34
30463;BME280;17256;43.618;25.336;2023-07-13T08:30:53;100588.69;;;37.07;54.64
30463;BME280;17256;43.618;25.336;2023-07-13T08:33:20;100525.81;;;36.72;54.07
30463;BME280;17256;43.618;25.336;2023-07-13T08:35:50;100489.34;;;36.46;53.86
30463;BME280;17256;43.618;25.336;2023-07-13T08:38:17;100593.81;;;36.98;53.34
30463;BME280;17256;43.618;25.336;2023-07-13T08:40:43;100544.91;;;37.07;53.09
30463;BME280;17256;43.618;25.336;2023-07-13T08:43:16;100565.72;;;37.46;53.92
30463;BME280;17256;43.618;25.336;2023-07-13T08:45:48;100589.75;;;37.64;52.74
30463;BME280;17256;43.618;25.336;2023-07-13T08:48:33;100591.53;;;37.26;51.66
30463;BME280;17256;43.618;25.336;2023-07-13T08:53:52;100570.31;;;36.50;51.63
30463;BME280;17256;43.618;25.336;2023-07-13T08:56:22;100574.91;;;36.74;52.09
30463;BME280;17256;43.618;25.336;2023-07-13T08:59:03;100584.75;;;37.15;52.60
30463;BME280;17256;43.618;25.336;2023-07-13T09:04:18;100583.06;;;37.56;51.14
30463;BME280;17256;43.618;25.336;2023-07-13T09:07:09;100588.53;;;37.65;50.22
30463;BME280;17256;43.618;25.336;2023-07-13T09:12:40;100588.03;;;37.60;50.50
30463;BME280;17256;43.618;25.336;2023-07-13T09:15:30;100591.25;;;37.77;50.28
30463;BME280;17256;43.618;25.336;2023-07-13T09:18:00;100533.28;;;37.91;49.33
30463;BME280;17256;43.618;25.336;2023-07-13T09:20:48;100554.00;;;37.77;49.25
30463;BME280;17256;43.618;25.336;2023-07-13T09:23:18;100560.22;;;37.60;50.03
30463;BME280;17256;43.618;25.336;2023-07-13T09:25:50;100546.78;;;37.18;51.32
30463;BME280;17256;43.618;25.336;2023-07-13T09:28:24;100566.50;;;37.23;50.85
30463;BME280;17256;43.618;25.336;2023-07-13T09:31:19;100592.44;;;37.53;50.09
30463;BME280;17256;43.618;25.336;2023-07-13T09:33:47;100574.03;;;37.32;49.87
30463;BME280;17256;43.618;25.336;2023-07-13T09:36:31;100570.69;;;37.07;47.47
30463;BME280;17256;43.618;25.336;2023-07-13T09:42:18;100601.34;;;37.25;49.18
30463;BME280;17256;43.618;25.336;2023-07-13T09:45:00;100599.09;;;37.61;47.96
30463;BME280;17256;43.618;25.336;2023-07-13T09:47:37;100595.19;;;37.46;49.57
30463;BME280;17256;43.618;25.336;2023-07-13T09:50:06;100590.81;;;37.75;49.97
30463;BME280;17256;43.618;25.336;2023-07-13T09:52:44;100529.00;;;37.09;50.60
30463;BME280;17256;43.618;25.336;2023-07-13T09:55:37;100561.16;;;37.22;50.97
30463;BME280;17256;43.618;25.336;2023-07-13T10:00:31;100512.56;;;37.48;50.13
30463;BME280;17256;43.618;25.336;2023-07-13T10:03:22;100537.34;;;37.64;49.61
30463;BME280;17256;43.618;25.336;2023-07-13T10:05:50;100566.38;;;37.62;49.35
30463;BME280;17256;43.618;25.336;2023-07-13T10:08:24;100479.09;;;37.56;49.37
30463;BME280;17256;43.618;25.336;2023-07-13T10:10:58;100569.44;;;38.22;49.61
30463;BME280;17256;43.618;25.336;2023-07-13T10:13:36;100570.75;;;38.02;48.36
30463;BME280;17256;43.618;25.336;2023-07-13T10:16:04;100576.78;;;38.20;49.82
30463;BME280;17256;43.618;25.336;2023-07-13T10:21:20;100577.50;;;38.16;47.09
30463;BME280;17256;43.618;25.336;2023-07-13T10:23:51;100557.94;;;38.19;46.83
30463;BME280;17256;43.618;25.336;2023-07-13T10:26:29;100543.28;;;38.27;46.90
30463;BME280;17256;43.618;25.336;2023-07-13T10:29:00;100548.00;;;38.42;47.41
30463;BME280;17256;43.618;25.336;2023-07-13T10:31:27;100544.91;;;38.25;47.62
30463;BME280;17256;43.618;25.336;2023-07-13T10:33:53;100467.81;;;38.20;47.54
30463;BME280;17256;43.618;25.336;2023-07-13T10:36:35;100528.44;;;38.18;47.76
30463;BME280;17256;43.618;25.336;2023-07-13T10:39:05;100557.31;;;38.36;49.07
30463;BME280;17256;43.618;25.336;2023-07-13T10:41:35;100534.28;;;38.29;49.03
30463;BME280;17256;43.618;25.336;2023-07-13T10:44:04;100524.16;;;38.38;46.75
30463;BME280;17256;43.618;25.336;2023-07-13T10:46:32;100527.06;;;38.42;47.83
30463;BME280;17256;43.618;25.336;2023-07-13T10:49:05;100482.47;;;38.44;47.51
30463;BME280;17256;43.618;25.336;2023-07-13T10:51:33;100517.66;;;38.15;46.79
30463;BME280;17256;43.618;25.336;2023-07-13T10:54:16;100522.22;;;38.46;47.81
30463;BME280;17256;43.618;25.336;2023-07-13T10:56:43;100461.38;;;38.00;47.34
30463;BME280;17256;43.618;25.336;2023-07-13T10:59:11;100532.63;;;38.91;46.27
30463;BME280;17256;43.618;25.336;2023-07-13T11:01:51;100485.09;;;38.60;46.33
30463;BME280;17256;43.618;25.336;2023-07-13T11:04:19;100461.03;;;38.05;46.38
30463;BME280;17256;43.618;25.336;2023-07-13T11:06:48;100520.06;;;38.09;46.55
30463;BME280;17256;43.618;25.336;2023-07-13T11:09:37;100414.34;;;37.48;47.93
30463;BME280;17256;43.618;25.336;2023-07-13T11:12:10;100502.88;;;38.69;46.90
30463;BME280;17256;43.618;25.336;2023-07-13T11:23:07;100468.75;;;38.31;46.86
30463;BME280;17256;43.618;25.336;2023-07-13T11:25:34;100449.38;;;38.21;47.46
30463;BME280;17256;43.618;25.336;2023-07-13T11:28:10;100476.53;;;38.64;48.67
30463;BME280;17256;43.618;25.336;2023-07-13T11:33:22;100468.75;;;39.01;45.61
30463;BME280;17256;43.618;25.336;2023-07-13T11:36:17;100462.38;;;38.78;46.00
30463;BME280;17256;43.618;25.336;2023-07-13T11:41:53;100427.31;;;39.50;47.06
30463;BME280;17256;43.618;25.336;2023-07-13T11:44:24;100443.72;;;39.46;44.22
30463;BME280;17256;43.618;25.336;2023-07-13T11:46:53;100447.84;;;39.49;44.95
30463;BME280;17256;43.618;25.336;2023-07-13T11:49:21;100413.25;;;39.34;44.47
30463;BME280;17256;43.618;25.336;2023-07-13T11:51:47;100452.59;;;39.85;46.01
30463;BME280;17256;43.618;25.336;2023-07-13T11:54:34;100289.91;;;39.04;42.07
30463;BME280;17256;43.618;25.336;2023-07-13T11:57:29;100332.47;;;39.47;42.30
30463;BME280;17256;43.618;25.336;2023-07-13T12:00:03;100436.81;;;40.23;42.50
30463;BME280;17256;43.618;25.336;2023-07-13T12:02:47;100400.34;;;39.65;42.96
30463;BME280;17256;43.618;25.336;2023-07-13T12:05:17;100426.72;;;39.85;42.10
30463;BME280;17256;43.618;25.336;2023-07-13T12:07:50;100402.47;;;39.79;41.93
30463;BME280;17256;43.618;25.336;2023-07-13T12:10:26;100433.91;;;40.20;40.63
30463;BME280;17256;43.618;25.336;2023-07-13T12:13:02;100417.50;;;40.27;40.45
30463;BME280;17256;43.618;25.336;2023-07-13T12:15:41;100433.22;;;40.44;41.78
30463;BME280;17256;43.618;25.336;2023-07-13T12:18:14;100436.09;;;40.55;40.28
30463;BME280;17256;43.618;25.336;2023-07-13T12:20:40;100421.28;;;40.46;41.11
30463;BME280;17256;43.618;25.336;2023-07-13T12:23:24;100303.06;;;39.67;41.98
30463;BME280;17256;43.618;25.336;2023-07-13T12:25:53;100414.91;;;39.97;41.36
30463;BME280;17256;43.618;25.336;2023-07-13T12:31:01;100402.00;;;39.66;42.45
30463;BME280;17256;43.618;25.336;2023-07-13T12:33:29;100414.53;;;40.03;42.57
30463;BME280;17256;43.618;25.336;2023-07-13T12:35:55;100394.44;;;39.44;40.86
30463;BME280;17256;43.618;25.336;2023-07-13T12:38:24;100279.66;;;38.52;41.28
30463;BME280;17256;43.618;25.336;2023-07-13T12:40:51;100391.66;;;39.51;41.03
30463;BME280;17256;43.618;25.336;2023-07-13T12:43:20;100414.25;;;39.56;42.42
30463;BME280;17256;43.618;25.336;2023-07-13T12:45:56;100411.78;;;39.55;42.42
30463;BME280;17256;43.618;25.336;2023-07-13T12:48:22;100292.31;;;38.92;42.34
30463;BME280;17256;43.618;25.336;2023-07-13T12:50:49;100364.47;;;39.42;42.54
30463;BME280;17256;43.618;25.336;2023-07-13T12:53:19;100351.00;;;39.53;41.71
30463;BME280;17256;43.618;25.336;2023-07-13T12:55:49;100379.91;;;39.85;42.04
30463;BME280;17256;43.618;25.336;2023-07-13T12:58:38;100415.91;;;39.61;42.03
30463;BME280;17256;43.618;25.336;2023-07-13T13:01:05;100376.63;;;39.17;43.42
30463;BME280;17256;43.618;25.336;2023-07-13T13:03:33;100400.44;;;39.21;43.39
30463;BME280;17256;43.618;25.336;2023-07-13T13:06:03;100393.16;;;39.38;41.57
30463;BME280;17256;43.618;25.336;2023-07-13T13:08:34;100329.78;;;39.13;41.19
30463;BME280;17256;43.618;25.336;2023-07-13T13:11:03;100346.38;;;39.41;40.08
30463;BME280;17256;43.618;25.336;2023-07-13T13:13:29;100389.28;;;39.67;39.86
30463;BME280;17256;43.618;25.336;2023-07-13T13:15:55;100339.97;;;39.65;39.67
30463;BME280;17256;43.618;25.336;2023-07-13T13:18:23;100347.41;;;39.66;40.43
30463;BME280;17256;43.618;25.336;2023-07-13T13:20:50;100375.09;;;40.10;42.20
30463;BME280;17256;43.618;25.336;2023-07-13T13:23:18;100387.06;;;40.16;40.84
30463;BME280;17256;43.618;25.336;2023-07-13T13:25:46;100376.06;;;39.52;42.87
30463;BME280;17256;43.618;25.336;2023-07-13T13:28:19;100354.53;;;39.32;44.96
30463;BME280;17256;43.618;25.336;2023-07-13T13:30:46;100377.72;;;39.57;44.76
30463;BME280;17256;43.618;25.336;2023-07-13T13:33:18;100345.06;;;39.21;44.92
30463;BME280;17256;43.618;25.336;2023-07-13T13:35:44;100382.66;;;39.60;44.69
30463;BME280;17256;43.618;25.336;2023-07-13T13:38:12;100368.94;;;39.35;44.33
30463;BME280;17256;43.618;25.336;2023-07-13T13:40:43;100267.41;;;38.59;44.96
30463;BME280;17256;43.618;25.336;2023-07-13T13:43:21;100373.56;;;38.99;44.53
30463;BME280;17256;43.618;25.336;2023-07-13T13:45:51;100345.63;;;38.93;45.13
30463;BME280;17256;43.618;25.336;2023-07-13T13:48:19;100356.47;;;39.14;44.76
30463;BME280;17256;43.618;25.336;2023-07-13T13:50:47;100325.56;;;38.96;43.19
30463;BME280;17256;43.618;25.336;2023-07-13T13:53:13;100374.63;;;39.25;43.31
30463;BME280;17256;43.618;25.336;2023-07-13T13:55:40;100347.03;;;39.13;41.85
30463;BME280;17256;43.618;25.336;2023-07-13T13:58:10;100366.28;;;39.09;43.45
30463;BME280;17256;43.618;25.336;2023-07-13T14:00:39;100355.78;;;39.31;42.79
30463;BME280;17256;43.618;25.336;2023-07-13T14:03:05;100344.56;;;39.12;41.97
30463;BME280;17256;43.618;25.336;2023-07-13T14:05:32;100326.09;;;39.13;41.64
30463;BME280;17256;43.618;25.336;2023-07-13T14:07:58;100341.97;;;39.51;41.73
30463;BME280;17256;43.618;25.336;2023-07-13T14:10:25;100303.25;;;39.30;41.52
30463;BME280;17256;43.618;25.336;2023-07-13T14:12:54;100326.41;;;39.62;41.03
30463;BME280;17256;43.618;25.336;2023-07-13T14:15:26;100329.53;;;39.39;38.79
30463;BME280;17256;43.618;25.336;2023-07-13T14:17:53;100343.56;;;39.45;39.82
30463;BME280;17256;43.618;25.336;2023-07-13T14:20:22;100315.50;;;39.17;39.52
30463;BME280;17256;43.618;25.336;2023-07-13T14:22:50;100319.44;;;39.60;41.30
30463;BME280;17256;43.618;25.336;2023-07-13T14:25:17;100265.00;;;39.16;39.06
30463;BME280;17256;43.618;25.336;2023-07-13T14:27:45;100304.50;;;39.36;39.80
30463;BME280;17256;43.618;25.336;2023-07-13T14:30:16;100321.13;;;39.68;39.91
30463;BME280;17256;43.618;25.336;2023-07-13T14:32:43;100280.91;;;39.72;39.90
30463;BME280;17256;43.618;25.336;2023-07-13T14:35:14;100276.41;;;39.88;39.71
30463;BME280;17256;43.618;25.336;2023-07-13T14:37:41;100284.25;;;39.91;39.85
30463;BME280;17256;43.618;25.336;2023-07-13T14:40:25;100278.06;;;39.86;39.73
30463;BME280;17256;43.618;25.336;2023-07-13T14:42:51;100302.25;;;39.67;39.78
30463;BME280;17256;43.618;25.336;2023-07-13T14:45:19;100235.09;;;39.24;40.02
30463;BME280;17256;43.618;25.336;2023-07-13T14:47:46;100300.97;;;39.64;39.27
30463;BME280;17256;43.618;25.336;2023-07-13T14:50:20;100286.84;;;39.31;39.92
30463;BME280;17256;43.618;25.336;2023-07-13T14:52:47;100307.50;;;39.54;40.42
30463;BME280;17256;43.618;25.336;2023-07-13T14:55:17;100311.63;;;39.57;40.04
30463;BME280;17256;43.618;25.336;2023-07-13T14:57:44;100301.19;;;39.27;40.96
30463;BME280;17256;43.618;25.336;2023-07-13T15:00:22;100300.88;;;39.47;41.69
30463;BME280;17256;43.618;25.336;2023-07-13T15:02:52;100313.25;;;39.58;40.89
30463;BME280;17256;43.618;25.336;2023-07-13T15:05:26;100321.97;;;39.76;40.14
30463;BME280;17256;43.618;25.336;2023-07-13T15:07:57;100272.44;;;39.27;40.24
30463;BME280;17256;43.618;25.336;2023-07-13T15:10:26;100325.25;;;39.74;40.92
30463;BME280;17256;43.618;25.336;2023-07-13T15:12:52;100324.84;;;39.79;41.26
30463;BME280;17256;43.618;25.336;2023-07-13T15:15:19;100264.69;;;39.35;41.06
30463;BME280;17256;43.618;25.336;2023-07-13T15:17:47;100305.50;;;39.65;40.45
30463;BME280;17256;43.618;25.336;2023-07-13T15:23:12;100270.38;;;39.21;41.69
30463;BME280;17256;43.618;25.336;2023-07-13T15:25:39;100328.03;;;39.56;41.39
30463;BME280;17256;43.618;25.336;2023-07-13T15:28:05;100326.88;;;39.68;41.66
30463;BME280;17256;43.618;25.336;2023-07-13T15:30:41;100304.50;;;39.40;42.50
30463;BME280;17256;43.618;25.336;2023-07-13T15:33:28;100314.84;;;39.48;42.55
30463;BME280;17256;43.618;25.336;2023-07-13T15:35:54;100330.00;;;39.42;41.68
30463;BME280;17256;43.618;25.336;2023-07-13T15:38:27;100340.19;;;39.35;41.79
30463;BME280;17256;43.618;25.336;2023-07-13T15:40:53;100258.94;;;38.69;40.38
30463;BME280;17256;43.618;25.336;2023-07-13T15:43:20;100296.34;;;38.84;39.48
30463;BME280;17256;43.618;25.336;2023-07-13T15:45:46;100237.88;;;38.55;40.88
30463;BME280;17256;43.618;25.336;2023-07-13T15:50:53;100222.44;;;38.70;39.71
30463;BME280;17256;43.618;25.336;2023-07-13T15:53:30;100221.22;;;38.71;39.81
30463;BME280;17256;43.618;25.336;2023-07-13T15:55:57;100292.44;;;39.10;39.16
30463;BME280;17256;43.618;25.336;2023-07-13T15:58:23;100325.44;;;39.37;40.00
30463;BME280;17256;43.618;25.336;2023-07-13T16:00:50;100272.69;;;39.04;39.79
30463;BME280;17256;43.618;25.336;2023-07-13T16:03:36;100313.09;;;39.29;38.69
30463;BME280;17256;43.618;25.336;2023-07-13T16:06:02;100278.41;;;39.01;38.88
30463;BME280;17256;43.618;25.336;2023-07-13T16:08:31;100285.28;;;38.89;36.84
30463;BME280;17256;43.618;25.336;2023-07-13T16:10:59;100284.97;;;39.01;38.13
30463;BME280;17256;43.618;25.336;2023-07-13T16:13:25;100162.66;;;38.24;38.00
30463;BME280;17256;43.618;25.336;2023-07-13T16:15:51;100287.50;;;39.06;37.99
30463;BME280;17256;43.618;25.336;2023-07-13T16:18:18;100283.84;;;39.13;37.93
30463;BME280;17256;43.618;25.336;2023-07-13T16:20:45;100302.72;;;39.14;37.76
30463;BME280;17256;43.618;25.336;2023-07-13T16:23:13;100294.84;;;39.04;38.44
30463;BME280;17256;43.618;25.336;2023-07-13T16:25:40;100242.47;;;38.66;38.52
30463;BME280;17256;43.618;25.336;2023-07-13T16:28:06;100293.91;;;38.89;38.64
30463;BME280;17256;43.618;25.336;2023-07-13T16:30:32;100269.16;;;38.67;38.06
30463;BME280;17256;43.618;25.336;2023-07-13T16:33:00;100297.16;;;38.84;39.05
30463;BME280;17256;43.618;25.336;2023-07-13T16:35:32;100291.41;;;38.84;38.53
30463;BME280;17256;43.618;25.336;2023-07-13T16:38:02;100283.97;;;38.76;39.39
30463;BME280;17256;43.618;25.336;2023-07-13T16:40:31;100256.34;;;38.61;39.31
30463;BME280;17256;43.618;25.336;2023-07-13T16:42:59;100299.06;;;38.66;38.74
30463;BME280;17256;43.618;25.336;2023-07-13T16:45:30;100249.97;;;38.30;39.70
30463;BME280;17256;43.618;25.336;2023-07-13T16:48:00;100301.72;;;38.44;38.98
30463;BME280;17256;43.618;25.336;2023-07-13T16:50:30;100296.69;;;38.34;38.67
30463;BME280;17256;43.618;25.336;2023-07-13T16:52:56;100258.69;;;38.04;39.51
30463;BME280;17256;43.618;25.336;2023-07-13T16:55:23;100262.31;;;37.97;40.04
30463;BME280;17256;43.618;25.336;2023-07-13T16:57:54;100298.03;;;38.07;38.90
30463;BME280;17256;43.618;25.336;2023-07-13T17:00:28;100262.78;;;37.69;39.31
30463;BME280;17256;43.618;25.336;2023-07-13T17:02:55;100256.00;;;37.51;39.31
30463;BME280;17256;43.618;25.336;2023-07-13T17:05:29;100256.56;;;37.30;38.86